Mount Vernon, AL (36560)

9:47 AM CST on February 07, 2016 (GMT -0600)
APRSWXNET | | Change Station
CLOSE
Current Station
Personal Weather Station
Location: Calvert, AL
Elevation: 49 ft
Nearby Weather Stations

Elev 49 ft 31.15 °N, 88.00 °W | Updated 48 minutes ago

Clear
Clear
43 °F
Feels Like 43 °F
N
0
Wind Variable Wind from North
Gusts 4.0 mph

Today
High -- | Low -- °F
--% Chance of Precip.
Yesterday
High -- | Low -- °F
Precip. -- in
Pressure 30.29 in
Visibility 10.0 miles
Clouds Clear
Windchill 43 °F
Dew Point 28 °F
Humidity 56%
Rainfall in
Snow Depth Not available.
6:40 AM 5:32 PM
Waning Crescent, 1% visible
METAR KMOB 071456Z 36004KT 10SM CLR 08/M04 A3029 RMK AO2 SLP256 T00831039 53003
Pressure 30.29 in
Visibility 10.0 miles
Clouds Clear
Windchill 43 °F
Dew Point 28 °F
Humidity 56%
Rainfall in
Snow Depth Not available.
6:40 AM 5:32 PM
Waning Crescent, 1% visible
METAR KMOB 071456Z 36004KT 10SM CLR 08/M04 A3029 RMK AO2 SLP256 T00831039 53003

10-Day Weather Forecast

Almanac

Astronomy

Feb. 07, 2016 Rise Set
Actual Time
Civil Twilight
Nautical Twilight
Astronomical Twilight
Moon
Length of Visible Light
Length of Day
Tomorrow will be .
, % of the Moon is Illuminated

Today's Extremes

State Highs State Lows

Community

WunderPhotos

Upload Photos

1,891,216 photos uploaded!

WunderBlog® & News

Nearby

Air Quality

  Air Quality AQ Index Pollutant
Not available.

Snow Depth

Station Depth Elevation

Earthquake Activity

City Distance Mag. Time & Date
Minimum magnitude displayed is 2.5.

Coastal Water Temperatures

Place Temperature

Stations

Nearby Weather Stations

Station Location Temp. Windchill Dew Point Humidity Wind Precip. Elev Updated Type
                   

Watches & Warnings

There are currently no watches in effect.